Time;durP1;ratioP1;P1;durP2;ratioP2;P2;SDS_P1;SDS_P2;PMS_P1;PMS_P2;Temp;Humidity;BMP_temperature;BMP_pressure;BME280_temperature;BME280_humidity;BME280_pressure;Samples;Min_cycle;Max_cycle;Signal;HPM_P1;HPM_P2
2022/05/20 00:00:48;;;;;;;20.35;5.78;;;;;;;;;;6218150;28;20062;-71
2022/05/20 00:03:50;;;;;;;24.50;6.03;;;;;;;;;;6216147;28;20117;-71
2022/05/20 00:06:52;;;;;;;14.63;5.45;;;;;;;;;;6217968;28;20064;-71
2022/05/20 00:09:53;;;;;;;12.18;5.03;;;;;;;;;;6219946;28;20050;-71
2022/05/20 00:12:55;;;;;;;12.70;5.35;;;;;;;;;;6222037;28;20436;-69
2022/05/20 00:15:59;;;;;;;10.68;5.30;;;;;;;;;;6222228;28;20394;-71
2022/05/20 00:19:00;;;;;;;8.77;5.63;;;;;;;;;;6223005;28;20049;-70
2022/05/20 00:22:05;;;;;;;9.43;5.10;;;;;;;;;;6223634;28;20061;-71
2022/05/20 00:28:29;;;;;;;10.18;7.72;;;;;;;;;;6225923;28;20129;-71
2022/05/20 00:31:32;;;;;;;11.57;7.53;;;;;;;;;;6224664;28;20053;-71
2022/05/20 00:34:34;;;;;;;;;;;;;;;;;;6224252;28;20384;-71
2022/05/20 00:37:35;;;;;;;15.20;8.57;;;;;;;;;;6225439;28;19925;-71
2022/05/20 00:40:37;;;;;;;14.68;8.65;;;;;;;;;;6225237;28;20058;-71
2022/05/20 00:43:40;;;;;;;15.48;8.88;;;;;;;;;;6226428;28;20056;-71
2022/05/20 00:46:43;;;;;;;;;;;;;;;;;;6224109;28;20336;-71
2022/05/20 00:49:47;;;;;;;11.13;8.45;;;;;;;;;;6225255;28;19932;-71
2022/05/20 00:52:49;;;;;;;14.98;8.48;;;;;;;;;;6224142;28;20125;-71
2022/05/20 00:55:51;;;;;;;9.53;8.00;;;;;;;;;;6224822;28;20058;-71
2022/05/20 00:58:54;;;;;;;11.55;7.50;;;;;;;;;;6223349;28;20223;-70
2022/05/20 01:02:00;;;;;;;10.70;7.47;;;;;;;;;;6218735;28;20058;-71
2022/05/20 01:05:03;;;;;;;14.55;6.95;;;;;;;;;;6217551;28;20367;-71
2022/05/20 01:08:04;;;;;;;;;;;;;;;;;;6215996;28;20046;-70
2022/05/20 01:11:06;;;;;;;14.57;6.60;;;;;;;;;;6219793;28;19929;-70
2022/05/20 01:14:10;;;;;;;12.45;5.63;;;;;;;;;;6219757;28;20054;-71
2022/05/20 01:17:13;;;;;;;10.80;6.07;;;;;;;;;;6220450;28;20555;-71
2022/05/20 01:20:18;;;;;;;13.38;5.90;;;;;;;;;;6220115;28;20050;-71
2022/05/20 01:23:22;;;;;;;13.57;5.35;;;;;;;;;;6221558;28;20061;-70
2022/05/20 01:26:24;;;;;;;9.13;5.15;;;;;;;;;;6221789;28;20054;-71
2022/05/20 01:29:26;;;;;;;6.82;4.82;;;;;;;;;;6220479;28;20056;-70
2022/05/20 01:32:28;;;;;;;8.13;4.72;;;;;;;;;;6220824;28;20050;-71
2022/05/20 01:35:40;;;;;;;6.53;4.43;;;;;;;;;;6220950;28;20053;-74
2022/05/20 01:38:43;;;;;;;9.02;4.88;;;;;;;;;;6217550;28;20054;-73
2022/05/20 01:41:49;;;;;;;;;;;;;;;;;;6221627;28;20061;-72
2022/05/20 01:44:57;;;;;;;8.30;4.68;;;;;;;;;;6218449;28;19973;-71
2022/05/20 01:48:04;;;;;;;8.20;4.50;;;;;;;;;;6219541;28;20233;-71
2022/05/20 01:51:10;;;;;;;11.35;4.25;;;;;;;;;;6221024;28;20054;-72
2022/05/20 01:54:17;;;;;;;9.10;4.18;;;;;;;;;;6221484;28;20054;-71
2022/05/20 01:57:24;;;;;;;5.90;4.30;;;;;;;;;;6220219;28;20119;-70
2022/05/20 02:00:29;;;;;;;5.82;4.15;;;;;;;;;;6219264;28;20053;-71
2022/05/20 02:03:32;;;;;;;5.07;3.80;;;;;;;;;;6221040;28;20096;-70
2022/05/20 02:06:38;;;;;;;8.05;3.97;;;;;;;;;;6218866;28;20233;-70
2022/05/20 02:09:44;;;;;;;9.77;4.75;;;;;;;;;;6219065;28;20309;-70
2022/05/20 02:12:50;;;;;;;6.30;4.50;;;;;;;;;;6220264;28;20055;-71
2022/05/20 02:15:56;;;;;;;8.15;4.60;;;;;;;;;;6221993;28;20178;-71
2022/05/20 02:19:02;;;;;;;8.55;4.70;;;;;;;;;;6221641;28;20209;-71
2022/05/20 02:22:07;;;;;;;5.60;4.75;;;;;;;;;;6221779;28;20046;-71
2022/05/20 02:25:14;;;;;;;9.45;4.80;;;;;;;;;;6220889;28;20050;-70
2022/05/20 02:28:19;;;;;;;9.50;4.30;;;;;;;;;;6218474;28;20132;-71
2022/05/20 02:31:25;;;;;;;9.90;4.60;;;;;;;;;;6213936;28;20329;-71
2022/05/20 02:34:29;;;;;;;14.05;4.63;;;;;;;;;;6218905;28;20064;-70
2022/05/20 02:37:32;;;;;;;8.93;4.38;;;;;;;;;;6221411;28;20247;-71
2022/05/20 02:40:36;;;;;;;12.15;4.28;;;;;;;;;;6219689;28;20057;-71
2022/05/20 02:43:37;;;;;;;;;;;;;;;;;;6222032;28;20050;-71
2022/05/20 02:46:40;;;;;;;10.27;4.20;;;;;;;;;;6220017;28;19925;-71
2022/05/20 02:49:42;;;;;;;11.63;4.27;;;;;;;;;;6218276;28;20404;-71
2022/05/20 02:52:44;;;;;;;5.38;3.92;;;;;;;;;;6220688;28;20331;-70
2022/05/20 02:55:47;;;;;;;8.95;4.13;;;;;;;;;;6218416;28;20062;-71
2022/05/20 03:05:28;;;;;;;6.93;4.82;;;;;;;;;;6217921;28;20069;-71
2022/05/20 03:08:29;;;;;;;6.78;4.38;;;;;;;;;;6217506;28;20290;-71
2022/05/20 03:11:33;;;;;;;8.23;3.80;;;;;;;;;;6211203;28;20973;-71
2022/05/20 03:14:35;;;;;;;8.13;5.20;;;;;;;;;;6216170;28;20535;-71
2022/05/20 03:17:37;;;;;;;7.40;4.32;;;;;;;;;;6216551;28;20222;-71
2022/05/20 03:20:39;;;;;;;13.50;4.90;;;;;;;;;;6219176;28;20233;-70
2022/05/20 03:23:41;;;;;;;8.70;4.07;;;;;;;;;;6218548;28;20061;-70
2022/05/20 03:26:44;;;;;;;12.77;4.65;;;;;;;;;;6220349;28;20356;-70
2022/05/20 03:29:45;;;;;;;9.45;4.57;;;;;;;;;;6215208;28;20333;-69
2022/05/20 03:32:47;;;;;;;8.95;4.82;;;;;;;;;;6217782;28;20111;-70
2022/05/20 03:35:49;;;;;;;10.35;5.03;;;;;;;;;;6217288;28;20050;-71
2022/05/20 03:38:50;;;;;;;8.73;4.75;;;;;;;;;;6219918;28;20054;-70
2022/05/20 03:41:53;;;;;;;7.47;4.35;;;;;;;;;;6218152;28;20329;-71
2022/05/20 03:44:55;;;;;;;8.20;4.78;;;;;;;;;;6221876;28;20050;-72
2022/05/20 03:47:57;;;;;;;12.05;4.78;;;;;;;;;;6220343;28;20364;-71
2022/05/20 03:51:08;;;;;;;10.05;4.78;;;;;;;;;;6218420;28;20073;-70
2022/05/20 03:54:10;;;;;;;9.90;5.50;;;;;;;;;;6227166;28;20236;-71
2022/05/20 03:57:13;;;;;;;8.50;4.55;;;;;;;;;;6222082;28;20049;-71
2022/05/20 04:00:16;;;;;;;16.23;5.20;;;;;;;;;;6220462;28;20067;-70
2022/05/20 04:03:18;;;;;;;8.65;4.93;;;;;;;;;;6220108;28;20097;-70
2022/05/20 04:06:20;;;;;;;9.95;4.90;;;;;;;;;;6221572;28;20249;-70
2022/05/20 04:09:21;;;;;;;13.77;5.15;;;;;;;;;;6222275;28;20062;-70
2022/05/20 04:12:28;;;;;;;7.40;5.57;;;;;;;;;;6218112;28;20109;-71
2022/05/20 04:15:30;;;;;;;12.13;4.80;;;;;;;;;;6222327;28;20333;-71
2022/05/20 04:18:31;;;;;;;6.22;4.85;;;;;;;;;;6221381;28;20057;-70
2022/05/20 04:21:33;;;;;;;8.52;4.88;;;;;;;;;;6221700;28;20058;-70
2022/05/20 04:24:35;;;;;;;8.68;4.47;;;;;;;;;;6221309;28;20050;-70
2022/05/20 04:27:39;;;;;;;8.57;4.85;;;;;;;;;;6221565;28;20128;-70
2022/05/20 04:30:41;;;;;;;11.57;5.50;;;;;;;;;;6221620;28;20057;-70
2022/05/20 04:33:43;;;;;;;9.05;5.00;;;;;;;;;;6218057;28;20222;-70
2022/05/20 04:36:45;;;;;;;11.45;4.80;;;;;;;;;;6218602;28;20096;-70
2022/05/20 04:39:47;;;;;;;13.77;5.00;;;;;;;;;;6221731;28;20080;-70
2022/05/20 04:49:29;;;;;;;8.43;5.07;;;;;;;;;;6222610;28;20050;-70
2022/05/20 04:52:30;;;;;;;12.83;4.83;;;;;;;;;;6220274;28;20057;-70
2022/05/20 04:55:32;;;;;;;6.38;4.55;;;;;;;;;;6222262;28;20057;-70
2022/05/20 04:58:36;;;;;;;16.70;4.95;;;;;;;;;;6221713;28;20127;-70
2022/05/20 05:01:37;;;;;;;7.47;4.45;;;;;;;;;;6211656;28;20125;-70
2022/05/20 05:04:39;;;;;;;8.90;4.22;;;;;;;;;;6219121;28;20056;-70
2022/05/20 05:07:42;;;;;;;8.98;5.05;;;;;;;;;;6216587;28;20097;-71
2022/05/20 05:10:45;;;;;;;12.57;4.97;;;;;;;;;;6219004;28;20068;-70
2022/05/20 05:13:48;;;;;;;8.10;4.53;;;;;;;;;;6221016;28;20046;-69
2022/05/20 05:16:49;;;;;;;10.13;4.07;;;;;;;;;;6218705;28;20107;-69
2022/05/20 05:19:51;;;;;;;8.43;4.25;;;;;;;;;;6217998;28;20046;-70
2022/05/20 05:22:53;;;;;;;10.40;4.68;;;;;;;;;;6219910;28;20088;-71
2022/05/20 05:25:55;;;;;;;7.28;4.38;;;;;;;;;;6218904;28;20060;-71
2022/05/20 05:28:58;;;;;;;11.02;4.85;;;;;;;;;;6219569;28;20050;-71
2022/05/20 05:32:00;;;;;;;9.00;4.13;;;;;;;;;;6219530;28;20058;-71
2022/05/20 05:35:01;;;;;;;12.10;4.70;;;;;;;;;;6218649;28;20062;-71
2022/05/20 05:38:03;;;;;;;8.13;4.30;;;;;;;;;;6217536;28;20337;-71
2022/05/20 05:41:05;;;;;;;10.13;4.18;;;;;;;;;;6221853;28;20050;-72
2022/05/20 05:44:08;;;;;;;9.05;4.72;;;;;;;;;;6221879;28;20054;-71
2022/05/20 05:47:10;;;;;;;9.32;4.72;;;;;;;;;;6226325;28;20048;-71
2022/05/20 05:50:11;;;;;;;9.57;4.07;;;;;;;;;;6224405;28;20100;-68
2022/05/20 05:53:14;;;;;;;8.82;4.43;;;;;;;;;;6223021;28;20050;-68
2022/05/20 05:56:16;;;;;;;13.82;4.78;;;;;;;;;;6222313;28;20058;-70
2022/05/20 05:59:19;;;;;;;10.20;4.60;;;;;;;;;;6220268;28;20052;-69
2022/05/20 06:02:21;;;;;;;9.38;4.95;;;;;;;;;;6222120;28;20042;-68
2022/05/20 06:05:22;;;;;;;12.35;4.55;;;;;;;;;;6220251;28;20212;-69
2022/05/20 06:08:25;;;;;;;10.38;4.97;;;;;;;;;;6218082;28;20049;-74
2022/05/20 06:11:26;;;;;;;10.23;4.95;;;;;;;;;;6223585;28;20351;-73
2022/05/20 06:14:29;;;;;;;10.80;5.10;;;;;;;;;;6219291;28;20356;-73
2022/05/20 06:17:31;;;;;;;9.80;5.10;;;;;;;;;;6221616;28;20054;-73
2022/05/20 06:20:33;;;;;;;18.15;6.22;;;;;;;;;;6223617;28;20062;-72
2022/05/20 06:23:35;;;;;;;11.18;5.35;;;;;;;;;;6224256;28;20057;-73
2022/05/20 06:26:37;;;;;;;12.98;4.90;;;;;;;;;;6222198;28;20054;-73
2022/05/20 06:29:40;;;;;;;11.35;5.03;;;;;;;;;;6222952;28;20058;-72
2022/05/20 06:32:42;;;;;;;10.27;5.93;;;;;;;;;;6220977;28;20062;-73
2022/05/20 06:42:23;;;;;;;10.23;5.55;;;;;;;;;;6217911;28;20350;-73
2022/05/20 06:45:26;;;;;;;10.88;5.40;;;;;;;;;;6223014;28;20054;-74
2022/05/20 06:48:41;;;;;;;12.00;5.43;;;;;;;;;;6222082;28;20054;-73
2022/05/20 06:51:43;;;;;;;15.57;4.97;;;;;;;;;;6215266;28;20061;-74
2022/05/20 06:54:44;;;;;;;11.20;4.85;;;;;;;;;;6219769;28;20042;-73
2022/05/20 06:57:46;;;;;;;8.30;4.30;;;;;;;;;;6221346;28;20875;-73
2022/05/20 07:00:49;;;;;;;8.23;3.60;;;;;;;;;;6222758;28;20072;-73
2022/05/20 07:03:51;;;;;;;6.55;4.60;;;;;;;;;;6224645;28;20061;-74
2022/05/20 07:06:54;;;;;;;7.03;3.78;;;;;;;;;;6218180;28;20044;-73
2022/05/20 07:09:56;;;;;;;6.20;3.55;;;;;;;;;;6221549;28;20100;-72
2022/05/20 07:12:57;;;;;;;11.00;4.18;;;;;;;;;;6223959;28;20046;-73
2022/05/20 07:16:00;;;;;;;7.05;4.10;;;;;;;;;;6219573;28;20046;-72
2022/05/20 07:19:02;;;;;;;;;;;;;;;;;;6224402;28;20089;-72
2022/05/20 07:22:04;;;;;;;14.55;5.05;;;;;;;;;;6223571;28;19918;-73
2022/05/20 07:25:06;;;;;;;8.00;4.60;;;;;;;;;;6226911;28;20112;-73
2022/05/20 07:28:08;;;;;;;14.23;4.73;;;;;;;;;;6226563;28;20068;-73
2022/05/20 07:31:11;;;;;;;10.38;5.18;;;;;;;;;;6229092;28;20108;-72
2022/05/20 07:34:13;;;;;;;11.20;4.82;;;;;;;;;;6224233;28;20065;-69
2022/05/20 07:37:15;;;;;;;10.95;4.50;;;;;;;;;;6227313;28;20049;-69
2022/05/20 07:40:17;;;;;;;58.67;9.40;;;;;;;;;;6225760;28;20053;-71
2022/05/20 07:43:20;;;;;;;231.27;18.52;;;;;;;;;;6222782;28;20379;-69
2022/05/20 07:46:23;;;;;;;44.40;5.75;;;;;;;;;;6222541;28;20092;-68
2022/05/20 07:49:25;;;;;;;8.52;3.92;;;;;;;;;;6227331;28;20113;-70
2022/05/20 07:55:49;;;;;;;6.47;3.90;;;;;;;;;;6226990;28;20046;-71
2022/05/20 07:58:54;;;;;;;10.20;3.42;;;;;;;;;;6224009;28;20085;-72
2022/05/20 08:01:58;;;;;;;7.38;3.40;;;;;;;;;;6220655;28;20049;-71
2022/05/20 08:05:00;;;;;;;8.25;3.97;;;;;;;;;;6223530;28;20096;-70
2022/05/20 08:08:06;;;;;;;5.90;3.38;;;;;;;;;;6223282;28;20117;-72
2022/05/20 08:11:08;;;;;;;6.25;3.25;;;;;;;;;;6224675;28;20050;-71
2022/05/20 08:14:09;;;;;;;5.55;3.10;;;;;;;;;;6221471;28;20144;-70
2022/05/20 08:17:12;;;;;;;12.38;3.78;;;;;;;;;;6219809;28;20527;-69
2022/05/20 08:20:21;;;;;;;10.52;3.20;;;;;;;;;;6224629;28;20244;-70
2022/05/20 08:23:23;;;;;;;6.60;3.67;;;;;;;;;;6224402;28;20096;-71
2022/05/20 08:26:25;;;;;;;9.20;4.07;;;;;;;;;;6226433;28;20062;-70
2022/05/20 08:29:26;;;;;;;7.82;3.53;;;;;;;;;;6225611;28;20054;-70
2022/05/20 08:32:29;;;;;;;10.73;3.55;;;;;;;;;;6222859;28;20094;-71
2022/05/20 08:35:31;;;;;;;8.48;4.00;;;;;;;;;;6222663;28;20103;-71
2022/05/20 08:38:33;;;;;;;7.55;4.10;;;;;;;;;;6224689;28;20062;-70
2022/05/20 08:41:37;;;;;;;5.13;3.80;;;;;;;;;;6221852;28;20356;-70
2022/05/20 08:44:39;;;;;;;6.90;4.15;;;;;;;;;;6223269;28;20045;-71
2022/05/20 08:47:45;;;;;;;9.00;5.00;;;;;;;;;;6223123;28;20061;-71
2022/05/20 08:50:49;;;;;;;5.60;4.20;;;;;;;;;;6222922;28;20663;-70
2022/05/20 08:53:51;;;;;;;12.85;4.82;;;;;;;;;;6224079;28;20218;-70
2022/05/20 08:56:53;;;;;;;7.20;4.32;;;;;;;;;;6221428;28;20336;-70
2022/05/20 08:59:55;;;;;;;10.30;4.30;;;;;;;;;;6224851;28;20053;-70
2022/05/20 09:02:58;;;;;;;7.93;3.60;;;;;;;;;;6223599;28;20041;-71
2022/05/20 09:06:05;;;;;;;9.98;4.43;;;;;;;;;;6222213;28;20050;-70
2022/05/20 09:09:10;;;;;;;5.43;3.70;;;;;;;;;;6223943;28;20280;-71
2022/05/20 09:12:25;;;;;;;9.82;4.53;;;;;;;;;;6223406;28;20062;-70
2022/05/20 09:15:46;;;;;;;10.35;4.68;;;;;;;;;;6223624;28;20237;-72
2022/05/20 09:18:51;;;;;;;5.72;4.15;;;;;;;;;;6225342;28;20108;-72
2022/05/20 09:22:01;;;;;;;8.18;4.05;;;;;;;;;;6222307;28;20064;-70
2022/05/20 09:25:04;;;;;;;6.78;4.13;;;;;;;;;;6222346;28;20345;-69
2022/05/20 09:28:26;;;;;;;8.70;4.55;;;;;;;;;;6223127;28;20049;-70
2022/05/20 09:31:41;;;;;;;7.13;4.53;;;;;;;;;;6223968;28;20232;-73
2022/05/20 09:34:44;;;;;;;12.18;4.60;;;;;;;;;;6225002;28;20347;-73
2022/05/20 09:37:47;;;;;;;14.60;4.85;;;;;;;;;;6220346;28;20296;-71
2022/05/20 09:40:51;;;;;;;12.57;4.95;;;;;;;;;;6225755;28;20057;-72
2022/05/20 09:43:58;;;;;;;7.13;4.63;;;;;;;;;;6220329;28;20072;-70
2022/05/20 09:47:02;;;;;;;7.18;4.13;;;;;;;;;;6225523;28;20041;-72
2022/05/20 09:50:16;;;;;;;6.78;4.95;;;;;;;;;;6225713;28;20054;-70
2022/05/20 09:53:26;;;;;;;8.57;5.00;;;;;;;;;;6225003;28;20057;-70
2022/05/20 09:56:29;;;;;;;10.10;4.80;;;;;;;;;;6219468;28;20331;-72
2022/05/20 09:59:39;;;;;;;9.07;4.43;;;;;;;;;;6222695;28;20131;-71
2022/05/20 10:02:45;;;;;;;12.35;3.65;;;;;;;;;;6219264;28;20149;-72
2022/05/20 10:05:53;;;;;;;7.57;3.65;;;;;;;;;;6220416;28;20053;-71
2022/05/20 10:09:00;;;;;;;7.72;4.03;;;;;;;;;;6221025;28;20318;-71
2022/05/20 10:12:05;;;;;;;8.40;4.10;;;;;;;;;;6224676;28;20077;-72
2022/05/20 10:15:12;;;;;;;7.25;4.22;;;;;;;;;;6222978;28;20073;-72
2022/05/20 10:18:32;;;;;;;13.50;4.45;;;;;;;;;;6221303;28;20061;-71
2022/05/20 10:21:46;;;;;;;9.77;4.97;;;;;;;;;;6222623;28;20084;-70
2022/05/20 10:24:53;;;;;;;5.65;3.60;;;;;;;;;;6221917;28;20046;-69
2022/05/20 10:28:00;;;;;;;6.40;3.75;;;;;;;;;;6219873;28;20377;-70
2022/05/20 10:34:25;;;;;;;39.95;22.88;;;;;;;;;;6218487;28;20062;-73
2022/05/20 10:37:41;;;;;;;23.83;14.63;;;;;;;;;;6227023;28;20077;-73
2022/05/20 10:41:00;;;;;;;49.63;33.53;;;;;;;;;;6220421;28;20290;-73
2022/05/20 10:51:42;;;;;;;6.83;4.00;;;;;;;;;;6149269;28;20209;-75
2022/05/20 10:55:05;;;;;;;8.95;4.00;;;;;;;;;;6149692;28;20047;-75
2022/05/20 10:58:24;;;;;;;10.65;3.75;;;;;;;;;;6144667;28;20047;-74
2022/05/20 11:01:32;;;;;;;6.60;4.30;;;;;;;;;;6147136;28;20071;-74
2022/05/20 11:05:06;;;;;;;4.38;2.85;;;;;;;;;;6144743;28;20047;-73
2022/05/20 11:08:16;;;;;;;4.40;3.25;;;;;;;;;;6148723;28;20055;-75
2022/05/20 11:11:32;;;;;;;6.07;3.20;;;;;;;;;;6145666;28;20492;-73
2022/05/20 11:15:01;;;;;;;7.78;3.50;;;;;;;;;;6143533;28;20273;-75
2022/05/20 11:18:15;;;;;;;5.07;3.25;;;;;;;;;;6146843;28;20062;-75
2022/05/20 11:21:35;;;;;;;9.13;3.83;;;;;;;;;;6177747;28;20341;-72
2022/05/20 11:24:46;;;;;;;8.88;3.70;;;;;;;;;;6219968;28;20211;-73
2022/05/20 11:28:17;;;;;;;5.03;3.75;;;;;;;;;;6222073;28;20146;-73
2022/05/20 11:31:30;;;;;;;6.07;4.10;;;;;;;;;;6215253;28;20229;-73
2022/05/20 11:35:11;;;;;;;10.00;3.53;;;;;;;;;;6226411;28;20041;-75
2022/05/20 11:38:29;;;;;;;5.50;3.75;;;;;;;;;;6207801;28;20106;-73
2022/05/20 11:41:38;;;;;;;6.80;3.80;;;;;;;;;;6218888;28;20046;-72
2022/05/20 11:44:55;;;;;;;9.15;4.03;;;;;;;;;;6220452;28;20061;-71
2022/05/20 11:48:16;;;;;;;11.77;4.20;;;;;;;;;;6218839;28;20058;-73
2022/05/20 11:51:43;;;;;;;4.28;3.88;;;;;;;;;;6222403;28;20190;-72
2022/05/20 11:54:47;;;;;;;10.52;4.07;;;;;;;;;;6219140;28;20288;-70
2022/05/20 11:57:52;;;;;;;9.18;4.15;;;;;;;;;;6221621;28;20121;-73
2022/05/20 12:00:55;;;;;;;12.55;3.88;;;;;;;;;;6216835;28;20041;-73
2022/05/20 12:04:07;;;;;;;8.18;4.68;;;;;;;;;;6220025;28;20387;-72
2022/05/20 12:07:11;;;;;;;13.30;4.78;;;;;;;;;;6227279;28;20075;-71
2022/05/20 12:10:35;;;;;;;5.22;3.90;;;;;;;;;;6221845;28;20060;-73
2022/05/20 12:13:59;;;;;;;7.45;4.35;;;;;;;;;;6221584;28;20058;-75
2022/05/20 12:17:04;;;;;;;8.13;4.20;;;;;;;;;;6226602;28;20046;-75
2022/05/20 12:27:01;;;;;;;10.52;4.03;;;;;;;;;;6227833;28;20285;-73
2022/05/20 12:30:06;;;;;;;7.68;4.00;;;;;;;;;;6221405;28;20058;-75
2022/05/20 12:33:24;;;;;;;7.75;4.68;;;;;;;;;;6224264;28;20045;-75
2022/05/20 12:36:35;;;;;;;8.80;4.40;;;;;;;;;;6218828;28;20056;-76
2022/05/20 12:39:48;;;;;;;8.18;3.90;;;;;;;;;;6219374;28;20241;-74
2022/05/20 12:42:57;;;;;;;6.03;4.72;;;;;;;;;;6224709;28;20257;-75
2022/05/20 12:45:58;;;;;;;6.20;3.85;;;;;;;;;;6225902;28;20332;-76
2022/05/20 12:52:21;;;;;;;5.90;4.30;;;;;;;;;;7333372;22;20054;-76
2022/05/20 12:55:24;;;;;;;14.30;4.82;;;;;;;;;;6232426;28;20482;-76
2022/05/20 12:58:27;;;;;;;7.93;4.20;;;;;;;;;;6238000;28;20100;-77
2022/05/20 13:01:29;;;;;;;7.28;4.68;;;;;;;;;;6235438;28;20046;-77
2022/05/20 13:04:36;;;;;;;7.15;4.43;;;;;;;;;;6240481;28;20053;-77
2022/05/20 13:07:40;;;;;;;11.30;4.20;;;;;;;;;;6234445;28;20065;-75
2022/05/20 13:10:42;;;;;;;7.65;4.25;;;;;;;;;;6230152;28;20243;-75
2022/05/20 13:13:45;;;;;;;11.55;4.78;;;;;;;;;;6234557;28;20105;-75
2022/05/20 13:16:49;;;;;;;6.93;5.03;;;;;;;;;;6232990;28;20092;-76
2022/05/20 13:19:53;;;;;;;7.05;4.60;;;;;;;;;;6231531;28;20064;-76
2022/05/20 13:22:59;;;;;;;8.57;4.22;;;;;;;;;;6234485;28;20042;-75
2022/05/20 13:26:02;;;;;;;5.07;4.55;;;;;;;;;;6237842;28;20053;-75
2022/05/20 13:29:10;;;;;;;5.80;4.40;;;;;;;;;;6222957;28;20344;-75
2022/05/20 13:32:14;;;;;;;8.85;4.25;;;;;;;;;;6230306;28;20054;-72
2022/05/20 13:35:15;;;;;;;8.65;4.28;;;;;;;;;;6233681;28;20100;-75
2022/05/20 13:38:28;;;;;;;9.73;4.00;;;;;;;;;;6227178;28;20058;-72
2022/05/20 13:41:32;;;;;;;6.90;4.32;;;;;;;;;;6226540;28;20050;-73
2022/05/20 13:44:33;;;;;;;8.35;4.53;;;;;;;;;;6226495;28;20046;-75
2022/05/20 13:50:56;;;;;;;9.93;4.63;;;;;;;;;;6230568;28;20335;-75
2022/05/20 13:54:03;;;;;;;6.00;4.40;;;;;;;;;;6209845;28;20042;-74
2022/05/20 13:57:06;;;;;;;7.13;4.60;;;;;;;;;;6206429;28;20058;-75
2022/05/20 14:00:17;;;;;;;8.15;4.20;;;;;;;;;;6209552;28;20054;-76
2022/05/20 14:03:21;;;;;;;6.15;4.07;;;;;;;;;;6212458;28;20053;-74
2022/05/20 14:06:27;;;;;;;7.93;4.25;;;;;;;;;;6211742;28;20054;-74
2022/05/20 14:09:30;;;;;;;7.47;4.03;;;;;;;;;;6204955;28;20054;-75
2022/05/20 14:12:33;;;;;;;6.43;4.00;;;;;;;;;;6205420;28;20229;-75
2022/05/20 14:15:43;;;;;;;7.10;4.47;;;;;;;;;;6208728;28;20066;-75
2022/05/20 14:18:47;;;;;;;6.13;4.05;;;;;;;;;;6205769;28;20049;-76
2022/05/20 14:21:50;;;;;;;4.55;3.90;;;;;;;;;;6208070;28;20104;-79
2022/05/20 14:24:57;;;;;;;5.20;3.60;;;;;;;;;;6209612;28;20117;-76
2022/05/20 14:28:12;;;;;;;7.72;4.22;;;;;;;;;;6209451;28;20055;-73
2022/05/20 14:31:29;;;;;;;6.38;4.30;;;;;;;;;;6203423;28;20053;-75
2022/05/20 14:34:33;;;;;;;5.70;3.50;;;;;;;;;;6206593;28;20058;-75
2022/05/20 14:37:35;;;;;;;19.23;4.63;;;;;;;;;;6206497;28;20225;-74
2022/05/20 14:40:40;;;;;;;4.95;3.45;;;;;;;;;;6218191;28;20054;-72
2022/05/20 14:43:50;;;;;;;5.93;3.47;;;;;;;;;;6210315;28;20088;-71
2022/05/20 14:47:15;;;;;;;12.93;3.90;;;;;;;;;;6203974;28;20058;-73
2022/05/20 14:50:19;;;;;;;8.60;4.03;;;;;;;;;;6210314;28;20109;-73
2022/05/20 14:53:27;;;;;;;5.70;3.60;;;;;;;;;;6208945;28;20038;-71
2022/05/20 14:56:41;;;;;;;4.43;3.50;;;;;;;;;;6214528;28;20096;-71
2022/05/20 14:59:43;;;;;;;5.50;3.00;;;;;;;;;;6205208;28;20121;-72
2022/05/20 15:02:44;;;;;;;10.55;3.13;;;;;;;;;;6199543;28;20324;-72
2022/05/20 15:05:47;;;;;;;8.30;3.08;;;;;;;;;;6203993;28;20072;-73
2022/05/20 15:08:49;;;;;;;6.40;3.50;;;;;;;;;;6206983;28;20045;-73
2022/05/20 15:11:53;;;;;;;8.90;3.50;;;;;;;;;;6202756;28;20061;-74
2022/05/20 15:14:54;;;;;;;5.57;3.15;;;;;;;;;;6204774;28;20046;-72
2022/05/20 15:17:59;;;;;;;9.10;3.85;;;;;;;;;;6203222;28;20214;-72
2022/05/20 15:21:02;;;;;;;6.95;2.90;;;;;;;;;;6206516;28;20046;-72
2022/05/20 15:24:06;;;;;;;8.15;2.95;;;;;;;;;;6203881;28;20488;-73
2022/05/20 15:27:16;;;;;;;5.85;2.83;;;;;;;;;;6205218;28;20053;-72
2022/05/20 15:30:18;;;;;;;9.45;3.20;;;;;;;;;;6206779;28;20284;-71
2022/05/20 15:36:39;;;;;;;4.03;2.60;;;;;;;;;;6201394;28;20065;-73
2022/05/20 15:39:43;;;;;;;8.43;2.80;;;;;;;;;;6204874;28;20396;-73
2022/05/20 15:42:46;;;;;;;5.72;2.50;;;;;;;;;;6209474;28;20050;-71
2022/05/20 15:45:48;;;;;;;3.60;2.50;;;;;;;;;;6214894;28;20115;-74
2022/05/20 15:48:50;;;;;;;;;;;;;;;;;;6209402;28;20050;-71
2022/05/20 15:51:52;;;;;;;6.35;2.08;;;;;;;;;;6207960;28;19924;-73
2022/05/20 15:54:56;;;;;;;11.07;2.25;;;;;;;;;;6212780;28;20733;-71
2022/05/20 15:58:06;;;;;;;6.07;2.20;;;;;;;;;;6213073;28;20096;-71
2022/05/20 16:01:07;;;;;;;7.05;2.55;;;;;;;;;;6211473;28;20250;-70
2022/05/20 16:04:09;;;;;;;7.68;2.72;;;;;;;;;;6214601;28;20042;-69
2022/05/20 16:07:12;;;;;;;4.53;2.60;;;;;;;;;;6214205;28;20050;-71
2022/05/20 16:10:14;;;;;;;8.30;2.33;;;;;;;;;;6211942;28;20057;-70
2022/05/20 16:13:17;;;;;;;3.40;2.03;;;;;;;;;;6209648;28;20067;-71
2022/05/20 16:16:19;;;;;;;4.60;2.30;;;;;;;;;;6209790;28;20066;-73
2022/05/20 16:19:21;;;;;;;5.37;2.27;;;;;;;;;;6214309;28;20125;-75
2022/05/20 16:22:29;;;;;;;8.40;2.25;;;;;;;;;;6212768;28;20953;-76
2022/05/20 16:25:31;;;;;;;32.70;3.22;;;;;;;;;;6207902;28;20054;-72
2022/05/20 16:28:34;;;;;;;5.30;2.00;;;;;;;;;;6207538;28;20058;-75
2022/05/20 16:31:37;;;;;;;3.53;2.30;;;;;;;;;;6210426;28;20077;-76
2022/05/20 16:34:38;;;;;;;6.65;1.90;;;;;;;;;;6207136;28;20124;-76
2022/05/20 16:37:40;;;;;;;5.30;1.88;;;;;;;;;;6206123;28;20046;-74
2022/05/20 16:40:42;;;;;;;3.08;2.22;;;;;;;;;;6208559;28;20451;-73
2022/05/20 16:43:45;;;;;;;3.85;2.20;;;;;;;;;;6210740;28;20272;-72
2022/05/20 16:46:48;;;;;;;6.85;2.15;;;;;;;;;;6205345;28;20131;-74
2022/05/20 16:49:50;;;;;;;3.88;2.33;;;;;;;;;;6210870;28;20046;-73
2022/05/20 16:52:51;;;;;;;4.72;1.90;;;;;;;;;;6213503;28;20046;-71
2022/05/20 17:01:45;;;;;;;7.03;4.03;;;;;;;;;;6212578;28;20391;-72
2022/05/20 17:02:36;;;;;;;4.93;2.17;;;;;;;;;;6206255;28;20058;-69
2022/05/20 17:05:38;;;;;;;5.60;1.92;;;;;;;;;;6207411;28;20125;-71
2022/05/20 17:08:40;;;;;;;4.25;2.38;;;;;;;;;;6206279;28;20105;-72
2022/05/20 17:11:43;;;;;;;6.23;3.60;;;;;;;;;;6209595;28;20058;-69
2022/05/20 17:14:47;;;;;;;8.73;2.38;;;;;;;;;;6205709;28;20050;-71
2022/05/20 17:17:48;;;;;;;3.88;1.80;;;;;;;;;;6206622;28;20058;-72
2022/05/20 17:20:50;;;;;;;5.85;2.00;;;;;;;;;;6205769;28;20336;-71
2022/05/20 17:27:19;;;;;;;4.50;1.90;;;;;;;;;;6189892;28;20096;-72
2022/05/20 17:30:23;;;;;;;5.88;2.20;;;;;;;;;;6197789;28;20069;-70
2022/05/20 17:33:26;;;;;;;6.10;2.03;;;;;;;;;;6205846;28;20728;-70
2022/05/20 17:36:28;;;;;;;3.17;1.85;;;;;;;;;;6201490;28;20233;-72
2022/05/20 17:39:30;;;;;;;3.90;2.03;;;;;;;;;;6205109;28;20363;-72
2022/05/20 17:42:32;;;;;;;3.15;1.80;;;;;;;;;;6204347;28;20046;-74
2022/05/20 17:45:35;;;;;;;3.40;1.85;;;;;;;;;;6207544;28;20309;-71
2022/05/20 17:48:37;;;;;;;3.20;1.90;;;;;;;;;;6210421;28;20064;-73
2022/05/20 17:51:38;;;;;;;5.38;1.83;;;;;;;;;;6208089;28;20043;-74
2022/05/20 17:54:40;;;;;;;4.43;1.90;;;;;;;;;;6210000;28;20048;-74
2022/05/20 17:57:42;;;;;;;3.97;1.90;;;;;;;;;;6209183;28;20097;-74
2022/05/20 18:00:46;;;;;;;8.35;2.20;;;;;;;;;;6209537;28;20057;-73
2022/05/20 18:03:48;;;;;;;3.63;2.33;;;;;;;;;;6210679;28;20053;-73
2022/05/20 18:06:50;;;;;;;8.03;2.30;;;;;;;;;;6205166;28;20050;-74
2022/05/20 18:09:51;;;;;;;145.32;84.20;;;;;;;;;;6205316;28;20516;-74
2022/05/20 18:12:53;;;;;;;4.47;3.20;;;;;;;;;;6208215;28;20049;-73
2022/05/20 18:15:56;;;;;;;14.32;6.72;;;;;;;;;;6207364;28;20120;-74
2022/05/20 18:18:58;;;;;;;;;;;;;;;;;;6207370;28;20046;-74
2022/05/20 18:22:01;;;;;;;26.30;14.23;;;;;;;;;;6210228;28;20001;-74
2022/05/20 18:25:03;;;;;;;6.65;3.03;;;;;;;;;;6209909;28;20097;-73
2022/05/20 18:28:06;;;;;;;3.75;1.83;;;;;;;;;;6213178;28;20347;-74
2022/05/20 18:31:09;;;;;;;3.40;1.92;;;;;;;;;;6214859;28;20046;-74
2022/05/20 18:40:45;;;;;;;5.28;1.92;;;;;;;;;;6207041;28;20062;-68
2022/05/20 18:43:47;;;;;;;4.75;1.80;;;;;;;;;;6204917;28;20093;-69
2022/05/20 18:46:50;;;;;;;7.03;1.98;;;;;;;;;;6205628;28;20232;-73
2022/05/20 18:49:53;;;;;;;5.28;2.17;;;;;;;;;;6207308;28;20197;-72
2022/05/20 18:52:54;;;;;;;;;;;;;;;;;;6205360;28;20298;-69
2022/05/20 18:55:56;;;;;;;5.40;1.83;;;;;;;;;;6205019;28;20004;-65
2022/05/20 18:58:58;;;;;;;3.25;1.90;;;;;;;;;;6211349;28;20054;-68
2022/05/20 19:02:01;;;;;;;6.65;2.97;;;;;;;;;;6199729;28;20555;-70
2022/05/20 19:05:03;;;;;;;6.15;1.92;;;;;;;;;;6205070;28;20081;-70
2022/05/20 19:08:05;;;;;;;5.03;2.40;;;;;;;;;;6207646;28;20103;-71
2022/05/20 19:11:08;;;;;;;6.78;2.17;;;;;;;;;;6208829;28;20054;-70
2022/05/20 19:14:10;;;;;;;4.20;2.03;;;;;;;;;;6206365;28;20276;-71
2022/05/20 19:17:15;;;;;;;8.02;2.67;;;;;;;;;;6203953;28;20229;-71
2022/05/20 19:20:16;;;;;;;8.27;2.10;;;;;;;;;;6209604;28;20202;-70
2022/05/20 19:23:18;;;;;;;6.45;1.92;;;;;;;;;;6208957;28;21153;-70
2022/05/20 19:26:22;;;;;;;4.68;2.03;;;;;;;;;;6208568;28;20458;-70
2022/05/20 19:29:23;;;;;;;5.95;2.17;;;;;;;;;;6207275;28;20050;-70
2022/05/20 19:32:26;;;;;;;4.53;2.38;;;;;;;;;;6205434;28;20054;-71